sensor_id;sensor_type;location;lat;lon;timestamp;pressure;altitude;pressure_sealevel;temperature;humidity
38616;BME280;24370;51.986;4.666;2023-02-02T00:01:33;102215.44;;;14.26;55.34
38616;BME280;24370;51.986;4.666;2023-02-02T00:03:58;102219.88;;;13.14;58.53
38616;BME280;24370;51.986;4.666;2023-02-02T00:06:25;102225.19;;;13.74;56.62
38616;BME280;24370;51.986;4.666;2023-02-02T00:08:51;102233.72;;;12.53;60.97
38616;BME280;24370;51.986;4.666;2023-02-02T00:11:18;102233.06;;;13.31;58.11
38616;BME280;24370;51.986;4.666;2023-02-02T00:13:44;102219.94;;;13.48;57.76
38616;BME280;24370;51.986;4.666;2023-02-02T00:21:35;102220.81;;;13.67;56.95
38616;BME280;24370;51.986;4.666;2023-02-02T00:24:02;102227.81;;;13.50;57.52
38616;BME280;24370;51.986;4.666;2023-02-02T00:26:28;102238.25;;;13.00;59.31
38616;BME280;24370;51.986;4.666;2023-02-02T00:28:53;102228.66;;;14.04;55.39
38616;BME280;24370;51.986;4.666;2023-02-02T00:31:19;102226.09;;;13.43;58.26
38616;BME280;24370;51.986;4.666;2023-02-02T00:33:46;102222.56;;;13.37;56.99
38616;BME280;24370;51.986;4.666;2023-02-02T00:36:11;102240.03;;;13.31;58.87
38616;BME280;24370;51.986;4.666;2023-02-02T00:38:37;102245.28;;;13.17;59.27
38616;BME280;24370;51.986;4.666;2023-02-02T00:41:03;102236.56;;;13.73;56.94
38616;BME280;24370;51.986;4.666;2023-02-02T00:43:28;102223.41;;;13.97;56.70
38616;BME280;24370;51.986;4.666;2023-02-02T00:45:54;102255.81;;;14.00;55.80
38616;BME280;24370;51.986;4.666;2023-02-02T00:48:20;102247.09;;;13.55;56.60
38616;BME280;24370;51.986;4.666;2023-02-02T00:50:45;102249.66;;;13.15;58.06
38616;BME280;24370;51.986;4.666;2023-02-02T00:53:10;102236.56;;;13.89;55.56
38616;BME280;24370;51.986;4.666;2023-02-02T00:55:36;102257.59;;;13.39;57.26
38616;BME280;24370;51.986;4.666;2023-02-02T00:58:01;102261.88;;;13.00;58.07
38616;BME280;24370;51.986;4.666;2023-02-02T01:00:27;102243.56;;;13.90;55.74
38616;BME280;24370;51.986;4.666;2023-02-02T01:02:53;102234.72;;;14.34;54.28
38616;BME280;24370;51.986;4.666;2023-02-02T01:05:19;102239.16;;;14.14;55.67
38616;BME280;24370;51.986;4.666;2023-02-02T01:07:45;102238.34;;;13.61;56.75
38616;BME280;24370;51.986;4.666;2023-02-02T01:10:17;102242.72;;;13.85;56.04
38616;BME280;24370;51.986;4.666;2023-02-02T01:12:43;102241.84;;;13.46;56.92
38616;BME280;24370;51.986;4.666;2023-02-02T01:15:09;102233.03;;;14.02;55.75
38616;BME280;24370;51.986;4.666;2023-02-02T01:17:35;102233.94;;;13.47;57.31
38616;BME280;24370;51.986;4.666;2023-02-02T01:20:01;102242.56;;;12.73;59.75
38616;BME280;24370;51.986;4.666;2023-02-02T01:22:27;102233.06;;;13.78;56.10
38616;BME280;24370;51.986;4.666;2023-02-02T01:24:52;102238.34;;;13.47;58.59
38616;BME280;24370;51.986;4.666;2023-02-02T01:27:18;102236.59;;;13.56;56.42
38616;BME280;24370;51.986;4.666;2023-02-02T01:29:43;102227.81;;;13.37;58.14
38616;BME280;24370;51.986;4.666;2023-02-02T01:32:09;102230.44;;;13.81;56.61
38616;BME280;24370;51.986;4.666;2023-02-02T01:34:35;102233.06;;;13.34;57.38
38616;BME280;24370;51.986;4.666;2023-02-02T01:37:00;102241.81;;;13.49;57.03
38616;BME280;24370;51.986;4.666;2023-02-02T01:39:26;102226.97;;;13.72;55.44
38616;BME280;24370;51.986;4.666;2023-02-02T01:41:51;102230.44;;;13.74;56.55
38616;BME280;24370;51.986;4.666;2023-02-02T01:47:22;102237.44;;;13.69;56.57
38616;BME280;24370;51.986;4.666;2023-02-02T01:49:49;102257.56;;;13.33;57.42
38616;BME280;24370;51.986;4.666;2023-02-02T01:52:16;102242.69;;;13.58;56.92
38616;BME280;24370;51.986;4.666;2023-02-02T01:54:48;102251.38;;;13.17;59.28
38616;BME280;24370;51.986;4.666;2023-02-02T01:57:21;102252.34;;;13.39;58.13
38616;BME280;24370;51.986;4.666;2023-02-02T01:59:50;102247.06;;;13.36;57.49
38616;BME280;24370;51.986;4.666;2023-02-02T02:02:17;102241.75;;;13.09;58.82
38616;BME280;24370;51.986;4.666;2023-02-02T02:04:43;102255.78;;;13.17;58.32
38616;BME280;24370;51.986;4.666;2023-02-02T02:07:09;102243.59;;;13.59;57.21
38616;BME280;24370;51.986;4.666;2023-02-02T02:09:35;102245.34;;;13.60;57.49
38616;BME280;24370;51.986;4.666;2023-02-02T02:12:02;102255.84;;;13.35;57.72
38616;BME280;24370;51.986;4.666;2023-02-02T02:14:27;102250.59;;;13.60;56.84
38616;BME280;24370;51.986;4.666;2023-02-02T02:23:51;102247.00;;;14.29;55.75
38616;BME280;24370;51.986;4.666;2023-02-02T02:32:40;102252.28;;;13.22;57.73
38616;BME280;24370;51.986;4.666;2023-02-02T02:37:58;102253.16;;;13.12;58.32
38616;BME280;24370;51.986;4.666;2023-02-02T02:40:40;102239.13;;;13.07;59.13
38616;BME280;24370;51.986;4.666;2023-02-02T02:43:15;102246.19;;;13.88;56.47
38616;BME280;24370;51.986;4.666;2023-02-02T02:45:43;102247.09;;;13.89;55.87
38616;BME280;24370;51.986;4.666;2023-02-02T02:48:10;102260.22;;;13.86;56.33
38616;BME280;24370;51.986;4.666;2023-02-02T02:50:36;102243.56;;;13.34;58.10
38616;BME280;24370;51.986;4.666;2023-02-02T02:53:10;102248.81;;;14.05;56.36
38616;BME280;24370;51.986;4.666;2023-02-02T03:01:12;102217.13;;;14.41;53.93
38616;BME280;24370;51.986;4.666;2023-02-02T03:09:15;102237.34;;;12.97;58.93
38616;BME280;24370;51.986;4.666;2023-02-02T03:11:43;102239.19;;;13.60;57.32
38616;BME280;24370;51.986;4.666;2023-02-02T03:14:09;102243.56;;;13.34;58.87
38616;BME280;24370;51.986;4.666;2023-02-02T03:16:36;102238.28;;;13.25;57.94
38616;BME280;24370;51.986;4.666;2023-02-02T03:19:01;102250.50;;;13.07;59.74
38616;BME280;24370;51.986;4.666;2023-02-02T03:21:29;102254.09;;;13.84;56.75
38616;BME280;24370;51.986;4.666;2023-02-02T03:23:54;102261.09;;;13.88;56.81
38616;BME280;24370;51.986;4.666;2023-02-02T03:26:19;102247.06;;;14.04;55.13
38616;BME280;24370;51.986;4.666;2023-02-02T03:28:46;102245.34;;;13.85;56.50
38616;BME280;24370;51.986;4.666;2023-02-02T03:31:12;102246.22;;;13.70;56.26
38616;BME280;24370;51.986;4.666;2023-02-02T03:33:38;102258.47;;;13.46;56.69
38616;BME280;24370;51.986;4.666;2023-02-02T03:36:04;102262.88;;;13.64;56.91
38616;BME280;24370;51.986;4.666;2023-02-02T03:38:29;102276.00;;;13.64;57.65
38616;BME280;24370;51.986;4.666;2023-02-02T03:40:55;102262.84;;;14.01;56.54
38616;BME280;24370;51.986;4.666;2023-02-02T03:43:21;102266.31;;;13.23;58.46
38616;BME280;24370;51.986;4.666;2023-02-02T03:45:47;102261.09;;;13.79;55.43
38616;BME280;24370;51.986;4.666;2023-02-02T03:48:12;102275.03;;;13.25;57.51
38616;BME280;24370;51.986;4.666;2023-02-02T03:50:38;102267.22;;;13.48;56.84
38616;BME280;24370;51.986;4.666;2023-02-02T03:53:03;102269.78;;;14.27;55.30
38616;BME280;24370;51.986;4.666;2023-02-02T03:55:29;102273.38;;;13.89;55.32
38616;BME280;24370;51.986;4.666;2023-02-02T03:57:54;102282.06;;;13.26;57.70
38616;BME280;24370;51.986;4.666;2023-02-02T04:00:20;102279.47;;;13.57;56.20
38616;BME280;24370;51.986;4.666;2023-02-02T04:02:46;102282.91;;;13.28;58.33
38616;BME280;24370;51.986;4.666;2023-02-02T04:05:11;102283.88;;;13.55;57.47
38616;BME280;24370;51.986;4.666;2023-02-02T04:07:37;102274.22;;;14.00;55.33
38616;BME280;24370;51.986;4.666;2023-02-02T04:10:03;102276.88;;;13.48;57.58
38616;BME280;24370;51.986;4.666;2023-02-02T04:12:28;102257.59;;;13.70;57.54
38616;BME280;24370;51.986;4.666;2023-02-02T04:14:54;102271.53;;;13.20;59.17
38616;BME280;24370;51.986;4.666;2023-02-02T04:17:19;102254.03;;;14.21;55.86
38616;BME280;24370;51.986;4.666;2023-02-02T04:19:44;102273.38;;;13.55;57.92
38616;BME280;24370;51.986;4.666;2023-02-02T04:22:10;102273.34;;;14.07;56.11
38616;BME280;24370;51.986;4.666;2023-02-02T04:24:35;102261.88;;;14.29;55.87
38616;BME280;24370;51.986;4.666;2023-02-02T04:27:01;102264.53;;;14.24;55.30
38616;BME280;24370;51.986;4.666;2023-02-02T04:29:26;102261.00;;;12.98;58.26
38616;BME280;24370;51.986;4.666;2023-02-02T04:31:51;102264.63;;;13.59;59.42
38616;BME280;24370;51.986;4.666;2023-02-02T04:34:17;102270.72;;;13.49;58.85
38616;BME280;24370;51.986;4.666;2023-02-02T04:36:43;102264.53;;;13.28;59.50
38616;BME280;24370;51.986;4.666;2023-02-02T04:39:10;102271.59;;;13.79;57.60
38616;BME280;24370;51.986;4.666;2023-02-02T04:41:36;102282.06;;;13.32;58.31
38616;BME280;24370;51.986;4.666;2023-02-02T04:44:02;102279.50;;;13.89;57.68
38616;BME280;24370;51.986;4.666;2023-02-02T04:46:27;102275.97;;;13.63;57.48
38616;BME280;24370;51.986;4.666;2023-02-02T04:48:53;102280.38;;;13.47;59.04
38616;BME280;24370;51.986;4.666;2023-02-02T04:51:18;102259.25;;;14.33;56.27
38616;BME280;24370;51.986;4.666;2023-02-02T04:53:44;102287.25;;;13.07;58.46
38616;BME280;24370;51.986;4.666;2023-02-02T04:56:15;102276.75;;;13.00;60.17
38616;BME280;24370;51.986;4.666;2023-02-02T04:58:42;102269.88;;;13.68;58.50
38616;BME280;24370;51.986;4.666;2023-02-02T05:01:09;102280.38;;;13.74;56.77
38616;BME280;24370;51.986;4.666;2023-02-02T05:03:34;102284.72;;;13.45;57.67
38616;BME280;24370;51.986;4.666;2023-02-02T05:06:03;102287.25;;;13.01;59.74
38616;BME280;24370;51.986;4.666;2023-02-02T05:08:29;102278.50;;;13.09;59.61
38616;BME280;24370;51.986;4.666;2023-02-02T05:10:55;102290.91;;;13.56;58.73
38616;BME280;24370;51.986;4.666;2023-02-02T05:13:20;102285.63;;;13.59;57.78
38616;BME280;24370;51.986;4.666;2023-02-02T05:15:47;102281.97;;;14.65;55.08
38616;BME280;24370;51.986;4.666;2023-02-02T05:18:12;102283.88;;;13.73;57.30
38616;BME280;24370;51.986;4.666;2023-02-02T05:20:38;102289.13;;;13.52;58.51
38616;BME280;24370;51.986;4.666;2023-02-02T05:23:03;102288.25;;;13.50;58.41
38616;BME280;24370;51.986;4.666;2023-02-02T05:25:28;102282.97;;;13.39;59.01
38616;BME280;24370;51.986;4.666;2023-02-02T05:27:54;102276.84;;;13.82;57.56
38616;BME280;24370;51.986;4.666;2023-02-02T05:30:19;102279.50;;;13.54;57.90
38616;BME280;24370;51.986;4.666;2023-02-02T05:32:45;102281.25;;;13.55;57.92
38616;BME280;24370;51.986;4.666;2023-02-02T05:35:10;102289.94;;;13.23;58.57
38616;BME280;24370;51.986;4.666;2023-02-02T05:37:35;102293.44;;;13.34;59.56
38616;BME280;24370;51.986;4.666;2023-02-02T05:40:02;102290.03;;;13.74;58.31
38616;BME280;24370;51.986;4.666;2023-02-02T05:42:27;102290.88;;;13.87;57.21
38616;BME280;24370;51.986;4.666;2023-02-02T05:44:52;102283.00;;;13.82;57.45
38616;BME280;24370;51.986;4.666;2023-02-02T05:47:18;102278.63;;;13.73;58.71
38616;BME280;24370;51.986;4.666;2023-02-02T05:49:43;102282.13;;;13.85;57.70
38616;BME280;24370;51.986;4.666;2023-02-02T05:52:13;102289.00;;;13.04;59.21
38616;BME280;24370;51.986;4.666;2023-02-02T05:54:41;102290.69;;;12.91;61.05
38616;BME280;24370;51.986;4.666;2023-02-02T05:57:07;102294.13;;;12.76;62.14
38616;BME280;24370;51.986;4.666;2023-02-02T05:59:32;102293.41;;;13.10;60.04
38616;BME280;24370;51.986;4.666;2023-02-02T06:01:58;102290.88;;;13.93;58.52
38616;BME280;24370;51.986;4.666;2023-02-02T06:04:23;102299.66;;;13.52;59.62
38616;BME280;24370;51.986;4.666;2023-02-02T06:06:48;102291.72;;;14.12;58.00
38616;BME280;24370;51.986;4.666;2023-02-02T06:09:14;102306.63;;;13.65;58.96
38616;BME280;24370;51.986;4.666;2023-02-02T06:11:39;102307.53;;;13.55;59.59
38616;BME280;24370;51.986;4.666;2023-02-02T06:14:07;102307.50;;;13.73;58.69
38616;BME280;24370;51.986;4.666;2023-02-02T06:16:32;102316.25;;;13.43;59.51
38616;BME280;24370;51.986;4.666;2023-02-02T06:18:57;102311.00;;;13.96;58.33
38616;BME280;24370;51.986;4.666;2023-02-02T06:21:23;102313.56;;;13.29;60.82
38616;BME280;24370;51.986;4.666;2023-02-02T06:23:49;102317.16;;;14.18;58.07
38616;BME280;24370;51.986;4.666;2023-02-02T06:26:15;102311.81;;;14.41;56.67
38616;BME280;24370;51.986;4.666;2023-02-02T06:28:42;102329.44;;;13.88;58.06
38616;BME280;24370;51.986;4.666;2023-02-02T06:31:09;102321.53;;;13.68;58.37
38616;BME280;24370;51.986;4.666;2023-02-02T06:33:35;102334.44;;;12.95;60.60
38616;BME280;24370;51.986;4.666;2023-02-02T06:36:02;102338.16;;;13.47;59.20
38616;BME280;24370;51.986;4.666;2023-02-02T06:38:28;102339.03;;;13.52;58.35
38616;BME280;24370;51.986;4.666;2023-02-02T06:40:53;102348.69;;;14.12;57.46
38616;BME280;24370;51.986;4.666;2023-02-02T06:43:21;102358.28;;;13.45;59.18
38616;BME280;24370;51.986;4.666;2023-02-02T06:45:46;102354.81;;;14.11;58.24
38616;BME280;24370;51.986;4.666;2023-02-02T06:48:12;102353.91;;;13.47;60.63
38616;BME280;24370;51.986;4.666;2023-02-02T06:50:38;102359.03;;;13.16;61.06
38616;BME280;24370;51.986;4.666;2023-02-02T06:53:04;102355.66;;;13.57;62.15
38616;BME280;24370;51.986;4.666;2023-02-02T06:55:29;102336.22;;;12.90;64.70
38616;BME280;24370;51.986;4.666;2023-02-02T06:57:59;102340.78;;;13.62;64.08
38616;BME280;24370;51.986;4.666;2023-02-02T07:00:25;102352.00;;;13.05;64.46
38616;BME280;24370;51.986;4.666;2023-02-02T07:02:52;102346.75;;;13.02;62.52
38616;BME280;24370;51.986;4.666;2023-02-02T07:05:18;102344.25;;;13.38;63.09
38616;BME280;24370;51.986;4.666;2023-02-02T07:07:44;102336.38;;;13.36;62.71
38616;BME280;24370;51.986;4.666;2023-02-02T07:10:10;102354.75;;;13.36;62.12
38616;BME280;24370;51.986;4.666;2023-02-02T07:12:36;102350.47;;;13.85;61.53
38616;BME280;24370;51.986;4.666;2023-02-02T07:15:02;102350.13;;;12.77;63.95
38616;BME280;24370;51.986;4.666;2023-02-02T07:17:27;102357.47;;;13.98;58.58
38616;BME280;24370;51.986;4.666;2023-02-02T07:19:53;102350.44;;;14.06;58.67
38616;BME280;24370;51.986;4.666;2023-02-02T07:22:18;102360.91;;;13.45;58.60
38616;BME280;24370;51.986;4.666;2023-02-02T07:24:43;102358.84;;;12.72;62.32
38616;BME280;24370;51.986;4.666;2023-02-02T07:27:09;102370.53;;;13.46;60.68
38616;BME280;24370;51.986;4.666;2023-02-02T07:29:35;102367.09;;;13.73;59.53
38616;BME280;24370;51.986;4.666;2023-02-02T07:32:00;102377.56;;;13.47;59.63
38616;BME280;24370;51.986;4.666;2023-02-02T07:34:25;102372.38;;;14.10;56.66
38616;BME280;24370;51.986;4.666;2023-02-02T07:36:51;102372.66;;;12.41;62.96
38616;BME280;24370;51.986;4.666;2023-02-02T07:39:16;102368.66;;;13.21;60.83
38616;BME280;24370;51.986;4.666;2023-02-02T07:41:42;102376.59;;;13.23;60.93
38616;BME280;24370;51.986;4.666;2023-02-02T07:44:14;102397.66;;;13.38;59.67
38616;BME280;24370;51.986;4.666;2023-02-02T07:46:42;102388.72;;;12.99;61.35
38616;BME280;24370;51.986;4.666;2023-02-02T07:49:12;102404.44;;;12.90;61.11
38616;BME280;24370;51.986;4.666;2023-02-02T07:51:38;102410.81;;;13.46;59.13
38616;BME280;24370;51.986;4.666;2023-02-02T07:54:04;102406.22;;;12.97;60.32
38616;BME280;24370;51.986;4.666;2023-02-02T07:56:29;102399.25;;;13.02;62.64
38616;BME280;24370;51.986;4.666;2023-02-02T07:58:56;102412.69;;;12.18;63.30
38616;BME280;24370;51.986;4.666;2023-02-02T08:01:23;102405.94;;;12.51;63.83
38616;BME280;24370;51.986;4.666;2023-02-02T08:03:51;102413.03;;;12.63;63.88
38616;BME280;24370;51.986;4.666;2023-02-02T08:06:22;102414.41;;;13.91;58.40
38616;BME280;24370;51.986;4.666;2023-02-02T08:08:49;102409.09;;;13.62;59.72
38616;BME280;24370;51.986;4.666;2023-02-02T08:11:17;102410.66;;;13.14;62.45
38616;BME280;24370;51.986;4.666;2023-02-02T08:13:43;102412.59;;;13.52;60.12
38616;BME280;24370;51.986;4.666;2023-02-02T08:16:10;102410.81;;;13.42;59.97
38616;BME280;24370;51.986;4.666;2023-02-02T08:18:36;102404.78;;;14.07;58.13
38616;BME280;24370;51.986;4.666;2023-02-02T08:21:04;102405.63;;;13.71;59.83
38616;BME280;24370;51.986;4.666;2023-02-02T08:23:30;102411.75;;;13.78;58.67
38616;BME280;24370;51.986;4.666;2023-02-02T08:26:11;102418.72;;;13.54;59.62
38616;BME280;24370;51.986;4.666;2023-02-02T08:28:38;102408.00;;;13.07;60.24
38616;BME280;24370;51.986;4.666;2023-02-02T08:31:21;102413.34;;;13.23;60.36
38616;BME280;24370;51.986;4.666;2023-02-02T08:33:51;102423.09;;;13.60;59.05
38616;BME280;24370;51.986;4.666;2023-02-02T08:36:20;102427.56;;;14.39;55.55
38616;BME280;24370;51.986;4.666;2023-02-02T08:38:46;102429.25;;;13.69;58.55
38616;BME280;24370;51.986;4.666;2023-02-02T08:41:14;102438.06;;;13.87;57.23
38616;BME280;24370;51.986;4.666;2023-02-02T08:43:40;102440.66;;;13.71;58.03
38616;BME280;24370;51.986;4.666;2023-02-02T08:46:07;102437.19;;;13.96;57.48
38616;BME280;24370;51.986;4.666;2023-02-02T08:48:34;102450.38;;;14.53;55.69
38616;BME280;24370;51.986;4.666;2023-02-02T08:50:59;102451.16;;;13.57;59.19
38616;BME280;24370;51.986;4.666;2023-02-02T08:53:26;102449.91;;;12.89;60.73
38616;BME280;24370;51.986;4.666;2023-02-02T08:56:02;102457.97;;;13.23;59.83
38616;BME280;24370;51.986;4.666;2023-02-02T08:58:28;102452.06;;;13.86;56.76
38616;BME280;24370;51.986;4.666;2023-02-02T09:00:54;102446.84;;;13.92;57.71
38616;BME280;24370;51.986;4.666;2023-02-02T09:03:27;102443.38;;;14.33;56.09
38616;BME280;24370;51.986;4.666;2023-02-02T09:05:52;102459.88;;;13.58;57.31
38616;BME280;24370;51.986;4.666;2023-02-02T09:08:18;102459.16;;;14.22;55.95
38616;BME280;24370;51.986;4.666;2023-02-02T09:10:43;102467.78;;;13.58;58.70
38616;BME280;24370;51.986;4.666;2023-02-02T09:13:08;102464.38;;;14.01;57.58
38616;BME280;24370;51.986;4.666;2023-02-02T09:15:34;102471.38;;;13.94;57.65
38616;BME280;24370;51.986;4.666;2023-02-02T09:17:59;102468.59;;;13.40;60.18
38616;BME280;24370;51.986;4.666;2023-02-02T09:20:24;102481.81;;;13.66;59.16
38616;BME280;24370;51.986;4.666;2023-02-02T09:22:50;102488.91;;;13.92;58.04
38616;BME280;24370;51.986;4.666;2023-02-02T09:25:15;102485.34;;;13.71;58.82
38616;BME280;24370;51.986;4.666;2023-02-02T09:27:41;102495.03;;;13.91;56.82
38616;BME280;24370;51.986;4.666;2023-02-02T09:30:07;102485.41;;;13.96;57.78
38616;BME280;24370;51.986;4.666;2023-02-02T09:32:33;102484.53;;;14.08;56.72
38616;BME280;24370;51.986;4.666;2023-02-02T09:34:59;102482.78;;;14.15;56.50
38616;BME280;24370;51.986;4.666;2023-02-02T09:37:27;102496.75;;;13.87;57.59
38616;BME280;24370;51.986;4.666;2023-02-02T09:39:53;102485.38;;;13.90;57.79
38616;BME280;24370;51.986;4.666;2023-02-02T09:45:14;102508.25;;;14.51;54.25
38616;BME280;24370;51.986;4.666;2023-02-02T09:47:50;102503.00;;;14.62;54.71
38616;BME280;24370;51.986;4.666;2023-02-02T09:55:38;102470.84;;;16.20;50.11
38616;BME280;24370;51.986;4.666;2023-02-02T09:58:21;102472.47;;;16.33;50.48
38616;BME280;24370;51.986;4.666;2023-02-02T10:00:54;102480.72;;;15.87;50.99
38616;BME280;24370;51.986;4.666;2023-02-02T10:03:30;102468.25;;;16.10;49.35
38616;BME280;24370;51.986;4.666;2023-02-02T10:06:05;102480.13;;;15.20;52.09
38616;BME280;24370;51.986;4.666;2023-02-02T10:08:41;102488.84;;;15.34;52.72
38616;BME280;24370;51.986;4.666;2023-02-02T10:11:25;102490.66;;;15.17;53.12
38616;BME280;24370;51.986;4.666;2023-02-02T10:13:56;102497.69;;;14.16;55.61
38616;BME280;24370;51.986;4.666;2023-02-02T10:16:24;102509.97;;;15.16;52.51
38616;BME280;24370;51.986;4.666;2023-02-02T10:19:02;102510.88;;;14.91;52.66
38616;BME280;24370;51.986;4.666;2023-02-02T10:21:50;102501.22;;;14.98;52.46
38616;BME280;24370;51.986;4.666;2023-02-02T10:24:21;102510.78;;;13.86;56.31
38616;BME280;24370;51.986;4.666;2023-02-02T10:26:53;102515.28;;;14.85;54.01
38616;BME280;24370;51.986;4.666;2023-02-02T10:34:34;102515.25;;;14.48;53.38
38616;BME280;24370;51.986;4.666;2023-02-02T10:42:32;102534.34;;;15.86;49.88
38616;BME280;24370;51.986;4.666;2023-02-02T10:45:11;102541.56;;;15.09;51.93
38616;BME280;24370;51.986;4.666;2023-02-02T10:47:38;102527.41;;;15.58;50.17
38616;BME280;24370;51.986;4.666;2023-02-02T10:50:18;102541.53;;;15.40;51.49
38616;BME280;24370;51.986;4.666;2023-02-02T10:52:54;102541.50;;;14.07;54.89
38616;BME280;24370;51.986;4.666;2023-02-02T11:00:40;102522.75;;;16.15;49.74
38616;BME280;24370;51.986;4.666;2023-02-02T11:03:09;102505.56;;;15.16;51.33
38616;BME280;24370;51.986;4.666;2023-02-02T11:05:36;102515.13;;;15.48;52.46
38616;BME280;24370;51.986;4.666;2023-02-02T11:08:29;102515.94;;;15.67;50.51
38616;BME280;24370;51.986;4.666;2023-02-02T11:10:57;102520.50;;;15.25;52.16
38616;BME280;24370;51.986;4.666;2023-02-02T11:13:30;102521.28;;;15.49;51.23
38616;BME280;24370;51.986;4.666;2023-02-02T11:16:17;102527.19;;;16.06;49.97
38616;BME280;24370;51.986;4.666;2023-02-02T11:18:43;102530.91;;;15.62;50.50
38616;BME280;24370;51.986;4.666;2023-02-02T11:23:52;102534.56;;;15.15;52.65
38616;BME280;24370;51.986;4.666;2023-02-02T11:26:18;102538.91;;;15.22;52.01
38616;BME280;24370;51.986;4.666;2023-02-02T11:28:46;102543.34;;;15.06;52.55
38616;BME280;24370;51.986;4.666;2023-02-02T11:31:12;102531.88;;;15.29;52.77
38616;BME280;24370;51.986;4.666;2023-02-02T11:33:38;102541.59;;;15.13;52.26
38616;BME280;24370;51.986;4.666;2023-02-02T11:36:06;102527.53;;;15.20;53.13
38616;BME280;24370;51.986;4.666;2023-02-02T11:38:42;102536.34;;;14.83;54.39
38616;BME280;24370;51.986;4.666;2023-02-02T11:41:08;102539.84;;;14.50;55.10
38616;BME280;24370;51.986;4.666;2023-02-02T11:43:40;102522.25;;;15.29;53.66
38616;BME280;24370;51.986;4.666;2023-02-02T11:46:20;102517.81;;;15.39;53.41
38616;BME280;24370;51.986;4.666;2023-02-02T11:48:58;102531.94;;;14.62;55.39
38616;BME280;24370;51.986;4.666;2023-02-02T11:51:25;102530.13;;;14.07;55.89
38616;BME280;24370;51.986;4.666;2023-02-02T11:54:14;102541.59;;;14.52;54.97
38616;BME280;24370;51.986;4.666;2023-02-02T11:56:40;102534.56;;;14.62;54.89
38616;BME280;24370;51.986;4.666;2023-02-02T11:59:25;102526.66;;;14.27;57.00
38616;BME280;24370;51.986;4.666;2023-02-02T12:04:43;102525.78;;;14.57;54.80
38616;BME280;24370;51.986;4.666;2023-02-02T12:07:27;102520.50;;;15.25;53.98
38616;BME280;24370;51.986;4.666;2023-02-02T12:09:58;102521.38;;;14.33;55.95
38616;BME280;24370;51.986;4.666;2023-02-02T12:17:48;102529.31;;;14.53;58.49
38616;BME280;24370;51.986;4.666;2023-02-02T12:39:54;102530.06;;;13.90;66.80
38616;BME280;24370;51.986;4.666;2023-02-02T12:42:39;102529.16;;;13.80;70.30
38616;BME280;24370;51.986;4.666;2023-02-02T12:45:38;102526.53;;;13.72;71.70
38616;BME280;24370;51.986;4.666;2023-02-02T12:51:09;102523.75;;;13.38;75.79
38616;BME280;24370;51.986;4.666;2023-02-02T12:56:25;102530.75;;;13.39;81.19
38616;BME280;24370;51.986;4.666;2023-02-02T13:04:49;102513.47;;;14.00;76.26
38616;BME280;24370;51.986;4.666;2023-02-02T13:07:27;102499.38;;;13.86;75.46
38616;BME280;24370;51.986;4.666;2023-02-02T13:12:51;102506.28;;;13.54;80.05
38616;BME280;24370;51.986;4.666;2023-02-02T13:15:20;102501.88;;;13.47;81.30
38616;BME280;24370;51.986;4.666;2023-02-02T13:17:54;102509.75;;;13.39;81.94
38616;BME280;24370;51.986;4.666;2023-02-02T13:23:35;102509.44;;;12.96;84.91
38616;BME280;24370;51.986;4.666;2023-02-02T13:26:19;102510.09;;;12.63;86.12
38616;BME280;24370;51.986;4.666;2023-02-02T13:39:56;102500.84;;;13.22;84.37
38616;BME280;24370;51.986;4.666;2023-02-02T13:42:32;102507.25;;;12.39;92.95
38616;BME280;24370;51.986;4.666;2023-02-02T13:48:01;102510.03;;;12.60;97.83
38616;BME280;24370;51.986;4.666;2023-02-02T13:50:42;102502.59;;;13.20;88.84
38616;BME280;24370;51.986;4.666;2023-02-02T13:53:33;102514.91;;;13.27;89.72
38616;BME280;24370;51.986;4.666;2023-02-02T14:01:30;102512.38;;;13.39;81.17
38616;BME280;24370;51.986;4.666;2023-02-02T14:03:57;102508.78;;;13.31;87.85
38616;BME280;24370;51.986;4.666;2023-02-02T14:06:26;102514.41;;;12.56;93.28
38616;BME280;24370;51.986;4.666;2023-02-02T14:11:31;102509.03;;;13.87;87.05
38616;BME280;24370;51.986;4.666;2023-02-02T14:14:05;102516.00;;;12.43;93.02
38616;BME280;24370;51.986;4.666;2023-02-02T14:16:51;102525.16;;;12.90;92.77
38616;BME280;24370;51.986;4.666;2023-02-02T14:38:03;102528.34;;;13.92;85.69
38616;BME280;24370;51.986;4.666;2023-02-02T14:40:52;102525.50;;;13.39;88.00
38616;BME280;24370;51.986;4.666;2023-02-02T14:43:45;102540.44;;;13.53;87.85
38616;BME280;24370;51.986;4.666;2023-02-02T14:48:46;102546.28;;;13.09;90.84
38616;BME280;24370;51.986;4.666;2023-02-02T14:51:18;102551.50;;;13.05;87.86
38616;BME280;24370;51.986;4.666;2023-02-02T14:53:56;102544.88;;;13.60;89.57
38616;BME280;24370;51.986;4.666;2023-02-02T14:56:45;102553.63;;;13.62;84.58
38616;BME280;24370;51.986;4.666;2023-02-02T14:59:21;102547.78;;;12.76;90.12
38616;BME280;24370;51.986;4.666;2023-02-02T15:01:58;102546.09;;;12.81;89.75
38616;BME280;24370;51.986;4.666;2023-02-02T15:04:26;102551.91;;;13.67;83.39
38616;BME280;24370;51.986;4.666;2023-02-02T15:06:52;102558.81;;;13.53;86.93
38616;BME280;24370;51.986;4.666;2023-02-02T15:14:32;102546.44;;;13.33;86.41
38616;BME280;24370;51.986;4.666;2023-02-02T15:19:45;102541.47;;;13.95;80.49
38616;BME280;24370;51.986;4.666;2023-02-02T15:22:28;102546.63;;;13.67;83.11
38616;BME280;24370;51.986;4.666;2023-02-02T15:24:57;102546.66;;;13.70;79.58
38616;BME280;24370;51.986;4.666;2023-02-02T15:27:25;102545.00;;;14.03;79.46
38616;BME280;24370;51.986;4.666;2023-02-02T15:30:02;102548.66;;;14.67;73.55
38616;BME280;24370;51.986;4.666;2023-02-02T15:32:28;102542.47;;;14.34;75.09
38616;BME280;24370;51.986;4.666;2023-02-02T15:34:59;102547.75;;;14.99;71.81
38616;BME280;24370;51.986;4.666;2023-02-02T15:37:30;102542.41;;;14.17;77.03